createdAt,value
2023-05-09T00:00:06.250Z,20.40
2023-05-09T00:02:34.641Z,20.30
2023-05-09T00:05:02.642Z,20.30
2023-05-09T00:07:29.709Z,20.30
2023-05-09T00:09:56.485Z,20.40
2023-05-09T00:12:23.666Z,20.30
2023-05-09T00:14:51.743Z,20.30
2023-05-09T00:17:18.849Z,20.30
2023-05-09T00:19:45.596Z,20.30
2023-05-09T00:22:13.258Z,20.20
2023-05-09T00:24:40.473Z,20.20
2023-05-09T00:27:07.378Z,20.20
2023-05-09T00:29:34.241Z,20.10
2023-05-09T00:32:01.034Z,20.10
2023-05-09T00:34:27.739Z,20.10
2023-05-09T00:36:54.491Z,20.00
2023-05-09T00:39:21.428Z,20.20
2023-05-09T00:41:48.188Z,19.90
2023-05-09T00:44:15.044Z,20.20
2023-05-09T00:46:41.951Z,20.10
2023-05-09T00:49:08.769Z,20.10
2023-05-09T00:51:37.425Z,20.10
2023-05-09T00:54:04.931Z,20.10
2023-05-09T00:56:32.722Z,20.20
2023-05-09T00:59:00.162Z,20.20
2023-05-09T01:01:27.098Z,20.20
2023-05-09T01:03:54.584Z,20.20
2023-05-09T01:06:52.219Z,20.10
2023-05-09T01:09:47.660Z,20.20
2023-05-09T01:12:33.894Z,20.00
2023-05-09T01:15:23.595Z,19.90
2023-05-09T01:17:59.880Z,19.90
2023-05-09T01:20:56.697Z,19.90
2023-05-09T01:23:45.084Z,19.90
2023-05-09T01:26:17.869Z,19.80
2023-05-09T01:28:56.575Z,19.80
2023-05-09T01:31:24.734Z,19.90
2023-05-09T01:33:58.083Z,19.80
2023-05-09T01:36:29.588Z,20.00
2023-05-09T01:38:58.244Z,19.90
2023-05-09T01:41:26.856Z,19.90
2023-05-09T01:43:57.425Z,19.90
2023-05-09T01:46:27.166Z,19.90
2023-05-09T01:48:56.008Z,19.90
2023-05-09T01:51:24.262Z,19.90
2023-05-09T01:53:52.553Z,19.90
2023-05-09T01:56:21.585Z,19.90
2023-05-09T01:58:50.123Z,19.60
2023-05-09T02:01:18.672Z,19.80
2023-05-09T02:03:50.713Z,19.80
2023-05-09T02:06:20.831Z,20.00
2023-05-09T02:08:48.305Z,20.10
2023-05-09T02:11:15.115Z,19.80
2023-05-09T02:13:41.912Z,19.80
2023-05-09T02:16:10.312Z,20.00
2023-05-09T02:18:37.293Z,19.70
2023-05-09T02:21:04.589Z,19.70
2023-05-09T02:23:31.805Z,19.70
2023-05-09T02:25:58.732Z,19.60
2023-05-09T02:28:27.295Z,19.60
2023-05-09T02:30:57.098Z,19.60
2023-05-09T02:33:24.379Z,19.60
2023-05-09T02:35:52.415Z,19.60
2023-05-09T02:38:19.448Z,19.70
2023-05-09T02:40:47.750Z,19.70
2023-05-09T02:43:15.286Z,19.60
2023-05-09T02:45:42.298Z,19.60
2023-05-09T02:48:09.585Z,19.60
2023-05-09T02:50:38.288Z,19.60
2023-05-09T02:53:05.594Z,19.60
2023-05-09T02:55:32.343Z,19.70
2023-05-09T02:58:12.156Z,19.60
2023-05-09T03:00:40.073Z,19.60
2023-05-09T03:03:07.014Z,19.60
2023-05-09T03:05:34.057Z,19.60
2023-05-09T03:08:00.792Z,19.60
2023-05-09T03:10:27.515Z,19.60
2023-05-09T03:12:54.291Z,19.70
2023-05-09T03:15:21.466Z,19.60
2023-05-09T03:17:48.480Z,19.50
2023-05-09T03:20:15.768Z,19.40
2023-05-09T03:22:42.721Z,19.50
2023-05-09T03:25:10.256Z,19.50
2023-05-09T03:27:37.038Z,19.50
2023-05-09T03:30:04.164Z,19.50
2023-05-09T03:32:31.193Z,19.60
2023-05-09T03:34:57.994Z,19.50
2023-05-09T03:37:26.937Z,19.50
2023-05-09T03:39:54.046Z,19.60
2023-05-09T03:42:21.432Z,19.60
2023-05-09T03:44:48.694Z,19.50
2023-05-09T03:57:00.758Z,19.50
2023-05-09T03:59:27.530Z,19.50
2023-05-09T04:01:54.322Z,19.40
2023-05-09T04:04:21.208Z,19.50
2023-05-09T04:06:48.055Z,19.40
2023-05-09T04:09:14.949Z,19.50
2023-05-09T04:11:41.710Z,19.50
2023-05-09T04:14:08.468Z,19.40
2023-05-09T04:16:35.238Z,19.30
2023-05-09T04:19:02.615Z,19.40
2023-05-09T04:21:29.351Z,19.50
2023-05-09T04:23:56.630Z,19.50
2023-05-09T04:26:24.744Z,19.50
2023-05-09T04:28:52.838Z,19.60
2023-05-09T04:31:19.756Z,19.50
2023-05-09T04:33:46.638Z,19.40
2023-05-09T04:36:13.457Z,19.60
2023-05-09T04:38:40.668Z,19.60
2023-05-09T04:41:07.457Z,19.50
2023-05-09T04:43:34.299Z,19.50
2023-05-09T04:46:01.338Z,19.50
2023-05-09T04:48:28.135Z,19.50
2023-05-09T04:50:55.079Z,19.60
2023-05-09T04:53:21.884Z,19.60
2023-05-09T04:55:48.648Z,19.60
2023-05-09T04:58:15.500Z,19.60
2023-05-09T05:00:42.276Z,19.60
2023-05-09T05:03:09.220Z,19.60
2023-05-09T05:05:37.440Z,19.60
2023-05-09T05:08:04.962Z,19.50
2023-05-09T05:10:31.683Z,19.70
2023-05-09T05:12:58.458Z,19.90
2023-05-09T05:15:26.699Z,19.60
2023-05-09T05:17:53.725Z,19.70
2023-05-09T05:20:21.195Z,19.70
2023-05-09T05:22:48.058Z,19.70
2023-05-09T05:25:15.193Z,19.50
2023-05-09T05:27:44.182Z,19.70
2023-05-09T05:30:11.587Z,19.70
2023-05-09T05:32:38.363Z,19.70
2023-05-09T05:35:05.541Z,19.70
2023-05-09T05:37:32.315Z,19.70
2023-05-09T05:39:59.177Z,19.70
2023-05-09T05:42:25.959Z,19.50
2023-05-09T05:44:52.744Z,19.80
2023-05-09T05:47:19.479Z,19.60
2023-05-09T05:49:46.727Z,19.80
2023-05-09T05:52:13.416Z,19.60
2023-05-09T05:54:40.337Z,19.70
2023-05-09T05:57:08.145Z,19.70
2023-05-09T05:59:34.991Z,19.80
2023-05-09T06:02:01.756Z,19.90
2023-05-09T06:04:29.050Z,19.90
2023-05-09T06:06:55.953Z,19.90
2023-05-09T06:09:22.745Z,20.00
2023-05-09T06:11:49.525Z,20.00
2023-05-09T06:14:16.241Z,20.00
2023-05-09T06:16:42.997Z,20.00
2023-05-09T06:19:09.848Z,20.10
2023-05-09T06:21:36.633Z,20.00
2023-05-09T06:24:10.215Z,20.00
2023-05-09T06:26:41.339Z,19.90
2023-05-09T06:29:08.313Z,19.90
2023-05-09T06:31:39.113Z,20.00
2023-05-09T06:34:06.490Z,20.00
2023-05-09T06:36:33.888Z,20.30
2023-05-09T06:39:01.074Z,20.20
2023-05-09T06:41:27.894Z,20.20
2023-05-09T06:43:54.736Z,20.20
2023-05-09T06:46:21.680Z,20.20
2023-05-09T06:48:48.550Z,20.20
2023-05-09T06:51:15.587Z,20.20
2023-05-09T06:53:42.339Z,20.30
2023-05-09T06:56:09.125Z,20.30
2023-05-09T06:58:36.356Z,20.30
2023-05-09T07:01:04.467Z,20.30
2023-05-09T07:03:31.296Z,20.30
2023-05-09T07:05:59.010Z,20.30
2023-05-09T07:08:26.692Z,20.30
2023-05-09T07:10:53.492Z,20.30
2023-05-09T07:13:20.432Z,20.30
2023-05-09T07:15:47.350Z,20.30
2023-05-09T07:18:14.136Z,20.40
2023-05-09T07:20:41.198Z,20.40
2023-05-09T07:23:08.040Z,20.40
2023-05-09T07:25:34.895Z,20.40
2023-05-09T07:28:01.686Z,20.40
2023-05-09T07:30:28.456Z,20.40
2023-05-09T07:32:55.221Z,20.40
2023-05-09T07:35:22.300Z,20.50
2023-05-09T07:37:49.187Z,20.50
2023-05-09T07:40:16.544Z,20.60
2023-05-09T07:42:49.528Z,20.60
2023-05-09T07:45:17.079Z,20.60
2023-05-09T07:47:44.390Z,20.70
2023-05-09T07:50:11.364Z,20.70
2023-05-09T07:52:38.188Z,20.70
2023-05-09T07:55:05.339Z,20.70
2023-05-09T07:57:32.179Z,20.80
2023-05-09T07:59:58.974Z,20.80
2023-05-09T08:02:26.015Z,20.80
2023-05-09T08:04:52.805Z,20.70
2023-05-09T08:07:19.551Z,20.80
2023-05-09T08:09:46.291Z,20.90
2023-05-09T08:12:13.101Z,20.90
2023-05-09T08:14:39.861Z,21.10
2023-05-09T08:17:06.607Z,21.30
2023-05-09T08:19:33.348Z,21.40
2023-05-09T08:22:00.709Z,21.50
2023-05-09T08:24:27.456Z,21.50
2023-05-09T08:26:54.249Z,21.50
2023-05-09T08:29:21.092Z,21.40
2023-05-09T08:31:48.003Z,21.40
2023-05-09T08:34:14.806Z,21.30
2023-05-09T08:36:41.715Z,21.30
2023-05-09T08:39:09.689Z,21.20
2023-05-09T08:41:37.016Z,21.30
2023-05-09T08:44:04.675Z,21.40
2023-05-09T08:46:38.966Z,21.40
2023-05-09T08:49:09.475Z,21.50
2023-05-09T08:51:36.670Z,21.60
2023-05-09T08:54:03.968Z,21.80
2023-05-09T08:56:31.747Z,22.00
2023-05-09T08:58:59.132Z,22.10
2023-05-09T09:01:26.975Z,22.10
2023-05-09T09:03:54.221Z,22.10
2023-05-09T09:06:22.107Z,22.00
2023-05-09T09:08:50.520Z,22.10
2023-05-09T09:11:18.644Z,22.10
2023-05-09T09:13:45.963Z,22.20
2023-05-09T09:16:22.077Z,22.20
2023-05-09T09:18:52.786Z,22.20
2023-05-09T09:21:21.086Z,22.20
2023-05-09T09:23:48.972Z,22.20
2023-05-09T09:26:16.185Z,22.30
2023-05-09T09:28:43.377Z,22.30
2023-05-09T09:31:25.493Z,22.30
2023-05-09T09:33:52.426Z,22.30
2023-05-09T09:36:36.731Z,22.30
2023-05-09T09:39:04.919Z,22.30
2023-05-09T09:41:36.289Z,22.30
2023-05-09T09:44:09.797Z,22.40
2023-05-09T09:46:47.084Z,22.60
2023-05-09T09:49:15.495Z,22.60
2023-05-09T09:51:42.849Z,22.60
2023-05-09T09:54:11.551Z,22.70
2023-05-09T09:56:42.835Z,22.70
2023-05-09T09:59:12.079Z,22.70
2023-05-09T10:02:01.560Z,22.70
2023-05-09T10:04:32.502Z,22.80
2023-05-09T10:07:02.377Z,22.70
2023-05-09T10:09:29.585Z,22.70
2023-05-09T10:11:57.515Z,22.70
2023-05-09T10:14:26.666Z,22.70
2023-05-09T10:16:57.528Z,22.70
2023-05-09T10:19:27.197Z,22.90
2023-05-09T10:21:55.056Z,23.00
2023-05-09T10:24:28.976Z,23.10
2023-05-09T10:27:06.293Z,23.10
2023-05-09T10:29:44.801Z,23.20
2023-05-09T10:32:40.355Z,23.20
2023-05-09T10:35:10.502Z,23.20
2023-05-09T10:37:37.693Z,23.30
2023-05-09T10:40:05.417Z,23.40
2023-05-09T10:42:32.628Z,23.50
2023-05-09T10:44:59.539Z,23.60
2023-05-09T10:47:28.002Z,23.50
2023-05-09T10:49:55.183Z,23.70
2023-05-09T10:52:22.821Z,23.80
2023-05-09T10:55:04.273Z,23.80
2023-05-09T10:57:32.161Z,23.80
2023-05-09T11:00:00.323Z,23.80
2023-05-09T11:02:31.044Z,23.80
2023-05-09T11:05:13.944Z,23.80
2023-05-09T11:07:41.109Z,23.80
2023-05-09T11:10:10.632Z,23.80
2023-05-09T11:12:59.406Z,23.80
2023-05-09T11:15:27.717Z,23.90
2023-05-09T11:18:09.335Z,24.00
2023-05-09T11:20:42.388Z,24.20
2023-05-09T11:23:11.813Z,24.10
2023-05-09T11:25:42.463Z,24.10
2023-05-09T11:28:09.866Z,24.30
2023-05-09T11:30:43.734Z,24.40
2023-05-09T11:33:24.165Z,24.40
2023-05-09T11:36:39.097Z,24.40
2023-05-09T11:39:09.878Z,24.30
2023-05-09T11:41:45.954Z,24.20
2023-05-09T11:44:20.842Z,24.10
2023-05-09T11:46:48.896Z,24.10
2023-05-09T11:49:17.034Z,24.10
2023-05-09T11:51:43.949Z,24.10
2023-05-09T11:54:13.676Z,24.10
2023-05-09T11:56:41.992Z,24.00
2023-05-09T11:59:10.537Z,24.10
2023-05-09T12:01:37.669Z,24.10
2023-05-09T12:04:07.618Z,24.10
2023-05-09T12:06:34.570Z,24.10
2023-05-09T12:09:01.496Z,24.10
2023-05-09T12:11:32.396Z,24.00
2023-05-09T12:13:59.333Z,24.00
2023-05-09T12:16:26.351Z,24.10
2023-05-09T12:18:53.804Z,24.20
2023-05-09T12:21:22.213Z,24.20
2023-05-09T12:23:51.293Z,24.20
2023-05-09T12:26:22.177Z,24.20
2023-05-09T12:28:49.068Z,24.10
2023-05-09T12:31:17.545Z,24.20
2023-05-09T12:33:44.675Z,24.10
2023-05-09T12:36:13.874Z,24.20
2023-05-09T12:38:41.029Z,24.20
2023-05-09T12:41:30.853Z,24.30
2023-05-09T12:44:01.200Z,24.30
2023-05-09T12:46:28.423Z,24.30
2023-05-09T12:48:55.719Z,24.30
2023-05-09T12:51:23.277Z,24.30
2023-05-09T12:53:50.461Z,24.30
2023-05-09T12:56:23.489Z,24.30
2023-05-09T12:58:55.429Z,24.40
2023-05-09T13:01:28.577Z,24.40
2023-05-09T13:04:06.351Z,24.40
2023-05-09T13:06:34.424Z,24.40
2023-05-09T13:09:03.048Z,24.50
2023-05-09T13:11:30.624Z,24.50
2023-05-09T13:13:57.770Z,24.50
2023-05-09T13:16:24.669Z,24.60
2023-05-09T13:18:51.548Z,24.70
2023-05-09T13:21:18.400Z,24.70
2023-05-09T13:23:45.692Z,24.70
2023-05-09T13:26:12.738Z,24.70
2023-05-09T13:28:39.551Z,24.70
2023-05-09T13:31:06.928Z,24.80
2023-05-09T13:33:34.028Z,24.80
2023-05-09T13:36:01.000Z,24.80
2023-05-09T13:38:30.979Z,24.70
2023-05-09T13:40:58.231Z,24.80
2023-05-09T13:43:25.069Z,24.80
2023-05-09T13:45:51.911Z,24.80
2023-05-09T13:48:18.787Z,24.70
2023-05-09T13:50:46.729Z,24.60
2023-05-09T13:53:13.542Z,24.70
2023-05-09T13:55:40.292Z,24.70
2023-05-09T13:58:07.598Z,24.60
2023-05-09T14:00:34.516Z,24.70
2023-05-09T14:03:02.816Z,24.70
2023-05-09T14:05:31.915Z,24.70
2023-05-09T14:07:58.762Z,24.60
2023-05-09T14:10:27.091Z,24.50
2023-05-09T14:12:54.288Z,24.50
2023-05-09T14:15:21.189Z,24.40
2023-05-09T14:17:48.035Z,24.40
2023-05-09T14:20:16.199Z,24.40
2023-05-09T14:22:43.386Z,24.30
2023-05-09T14:25:10.411Z,24.30
2023-05-09T14:27:37.329Z,24.20
2023-05-09T14:30:04.889Z,24.20
2023-05-09T14:32:31.697Z,24.10
2023-05-09T14:34:58.547Z,23.90
2023-05-09T14:37:25.443Z,23.80
2023-05-09T14:39:52.200Z,23.70
2023-05-09T14:42:19.776Z,23.50
2023-05-09T14:44:47.387Z,23.40
2023-05-09T14:47:14.324Z,23.20
2023-05-09T14:49:41.445Z,23.20
2023-05-09T14:52:08.269Z,23.00
2023-05-09T14:54:35.130Z,23.00
2023-05-09T14:57:04.530Z,22.90
2023-05-09T14:59:31.403Z,22.90
2023-05-09T15:01:58.253Z,22.90
2023-05-09T15:04:28.309Z,23.00
2023-05-09T15:06:55.185Z,22.90
2023-05-09T15:09:22.548Z,22.90
2023-05-09T15:11:49.519Z,22.70
2023-05-09T15:14:17.027Z,22.50
2023-05-09T15:16:44.246Z,22.30
2023-05-09T15:19:11.431Z,22.40
2023-05-09T15:21:38.255Z,22.30
2023-05-09T15:24:05.623Z,21.90
2023-05-09T15:26:32.565Z,21.50
2023-05-09T15:28:59.461Z,21.20
2023-05-09T15:31:26.391Z,21.10
2023-05-09T15:33:53.386Z,21.10
2023-05-09T15:36:20.148Z,21.10
2023-05-09T15:38:49.529Z,21.20
2023-05-09T15:41:16.733Z,21.30
2023-05-09T15:43:43.618Z,21.40
2023-05-09T15:46:10.568Z,21.40
2023-05-09T15:48:37.452Z,21.20
2023-05-09T15:51:04.402Z,21.10
2023-05-09T15:53:31.290Z,21.10
2023-05-09T15:55:58.165Z,21.20
2023-05-09T15:58:25.742Z,21.20
2023-05-09T16:00:52.654Z,21.40
2023-05-09T16:03:19.805Z,21.50
2023-05-09T16:05:46.983Z,21.50
2023-05-09T16:08:14.340Z,21.50
2023-05-09T16:10:41.122Z,21.30
2023-05-09T16:13:08.155Z,20.90
2023-05-09T16:15:35.253Z,20.70
2023-05-09T16:18:02.109Z,20.50
2023-05-09T16:20:29.012Z,20.50
2023-05-09T16:22:55.819Z,20.50
2023-05-09T16:25:22.793Z,20.70
2023-05-09T16:27:49.611Z,20.90
2023-05-09T16:30:16.900Z,21.10
2023-05-09T16:32:44.604Z,21.20
2023-05-09T16:35:11.476Z,21.20
2023-05-09T16:37:38.456Z,21.20
2023-05-09T16:40:06.061Z,21.20
2023-05-09T16:42:32.991Z,21.20
2023-05-09T16:45:00.061Z,21.30
2023-05-09T16:47:26.908Z,21.30
2023-05-09T16:49:53.630Z,21.30
2023-05-09T16:52:20.683Z,21.30
2023-05-09T16:54:49.138Z,21.20
2023-05-09T16:57:16.138Z,21.20
2023-05-09T16:59:43.143Z,21.30
2023-05-09T17:02:09.993Z,21.10
2023-05-09T17:04:37.944Z,21.00
2023-05-09T17:07:04.810Z,20.90
2023-05-09T17:09:32.517Z,20.90
2023-05-09T17:12:00.582Z,21.00
2023-05-09T17:14:27.555Z,21.00
2023-05-09T17:16:54.471Z,21.00
2023-05-09T17:19:23.458Z,21.10
2023-05-09T17:21:50.701Z,21.00
2023-05-09T17:24:17.899Z,21.10
2023-05-09T17:26:44.726Z,21.10
2023-05-09T17:29:11.470Z,21.10
2023-05-09T17:31:38.220Z,21.00
2023-05-09T17:34:05.663Z,21.00
2023-05-09T17:36:33.562Z,21.00
2023-05-09T17:39:00.837Z,21.00
2023-05-09T17:41:27.785Z,21.00
2023-05-09T17:43:57.317Z,21.00
2023-05-09T17:46:24.770Z,21.00
2023-05-09T17:48:51.884Z,20.90
2023-05-09T17:51:18.807Z,20.90
2023-05-09T17:53:46.796Z,20.90
2023-05-09T17:56:13.684Z,20.90
2023-05-09T17:58:40.533Z,20.90
2023-05-09T18:01:07.712Z,20.90
2023-05-09T18:03:34.683Z,20.90
2023-05-09T18:06:01.845Z,20.90
2023-05-09T18:08:29.615Z,20.90
2023-05-09T18:10:57.707Z,20.80
2023-05-09T18:13:24.794Z,20.90
2023-05-09T18:15:54.048Z,20.90
2023-05-09T18:18:20.971Z,20.90
2023-05-09T18:20:47.871Z,20.90
2023-05-09T18:23:15.520Z,20.80
2023-05-09T18:25:42.332Z,20.80
2023-05-09T18:28:09.417Z,20.80
2023-05-09T18:30:36.672Z,20.80
2023-05-09T18:33:03.814Z,20.80
2023-05-09T18:35:31.615Z,20.70
2023-05-09T18:37:58.422Z,20.70
2023-05-09T18:40:26.108Z,20.70
2023-05-09T18:42:53.037Z,20.70
2023-05-09T18:45:19.825Z,20.70
2023-05-09T18:47:46.652Z,20.70
2023-05-09T18:50:13.928Z,20.80
2023-05-09T18:52:40.956Z,20.80
2023-05-09T18:55:08.232Z,20.80
2023-05-09T18:57:35.060Z,20.70
2023-05-09T19:00:02.107Z,20.70
2023-05-09T19:02:30.132Z,20.70
2023-05-09T19:04:57.190Z,20.70
2023-05-09T19:07:24.154Z,20.70
2023-05-09T19:09:51.364Z,20.60
2023-05-09T19:12:18.996Z,20.40
2023-05-09T19:14:45.774Z,20.10
2023-05-09T19:17:12.533Z,19.80
2023-05-09T19:19:39.485Z,19.60
2023-05-09T19:22:06.815Z,19.40
2023-05-09T19:24:33.612Z,19.30
2023-05-09T19:27:00.493Z,19.30
2023-05-09T19:29:27.255Z,19.30
2023-05-09T19:31:54.205Z,19.50
2023-05-09T19:34:20.956Z,19.60
2023-05-09T19:36:47.771Z,19.70
2023-05-09T19:39:14.702Z,19.70
2023-05-09T19:41:41.695Z,19.80
2023-05-09T19:44:08.511Z,19.70
2023-05-09T19:46:35.448Z,19.80
2023-05-09T19:49:02.379Z,19.80
2023-05-09T19:51:29.635Z,19.80
2023-05-09T19:53:56.455Z,19.90
2023-05-09T19:56:23.900Z,19.90
2023-05-09T19:58:50.792Z,19.90
2023-05-09T20:01:19.101Z,19.90
2023-05-09T20:03:47.021Z,20.00
2023-05-09T20:06:13.967Z,20.00
2023-05-09T20:08:40.898Z,20.00
2023-05-09T20:11:07.918Z,20.00
2023-05-09T20:13:34.765Z,20.00
2023-05-09T20:16:03.213Z,19.90
2023-05-09T20:18:33.283Z,19.90
2023-05-09T20:21:01.367Z,19.90
2023-05-09T20:23:28.631Z,19.90
2023-05-09T20:25:56.069Z,19.80
2023-05-09T20:28:23.010Z,19.60
2023-05-09T20:30:50.181Z,19.30
2023-05-09T20:33:17.066Z,19.20
2023-05-09T20:35:43.925Z,19.20
2023-05-09T20:38:11.687Z,19.10
2023-05-09T20:40:38.576Z,19.20
2023-05-09T20:43:05.534Z,19.20
2023-05-09T20:45:32.470Z,19.20
2023-05-09T20:47:59.427Z,19.30
2023-05-09T20:50:26.350Z,19.30
2023-05-09T20:52:53.046Z,19.30
2023-05-09T20:55:19.913Z,19.40
2023-05-09T20:57:46.738Z,19.40
2023-05-09T21:00:13.938Z,19.40
2023-05-09T21:02:40.952Z,19.50
2023-05-09T21:05:08.094Z,19.50
2023-05-09T21:07:34.807Z,19.60
2023-05-09T21:10:02.019Z,19.50
2023-05-09T21:12:28.796Z,19.50
2023-05-09T21:14:56.343Z,19.50
2023-05-09T21:17:23.134Z,19.40
2023-05-09T21:19:51.841Z,19.50
2023-05-09T21:22:18.643Z,19.50
2023-05-09T21:24:45.664Z,19.40
2023-05-09T21:27:12.663Z,19.50
2023-05-09T21:29:39.375Z,19.70
2023-05-09T21:32:06.304Z,19.30
2023-05-09T21:34:33.105Z,19.30
2023-05-09T21:36:59.911Z,19.40
2023-05-09T21:39:26.645Z,19.30
2023-05-09T21:41:53.390Z,19.30
2023-05-09T21:44:20.139Z,19.40
2023-05-09T21:46:47.059Z,19.10
2023-05-09T21:49:16.698Z,19.10
2023-05-09T21:51:43.647Z,19.00
2023-05-09T21:54:11.115Z,19.10
2023-05-09T21:56:38.098Z,19.00
2023-05-09T21:59:05.236Z,19.00
2023-05-09T22:01:32.121Z,18.80
2023-05-09T22:03:59.186Z,18.80
2023-05-09T22:06:26.047Z,18.60
2023-05-09T22:08:52.880Z,18.50
2023-05-09T22:11:20.066Z,18.50
2023-05-09T22:13:46.856Z,18.50
2023-05-09T22:16:13.683Z,18.50
2023-05-09T22:18:40.549Z,18.50
2023-05-09T22:21:07.292Z,18.50
2023-05-09T22:23:34.114Z,18.30
2023-05-09T22:26:00.928Z,18.40
2023-05-09T22:28:27.684Z,18.30
2023-05-09T22:30:54.600Z,18.40
2023-05-09T22:33:21.370Z,18.20
2023-05-09T22:35:48.116Z,18.20
2023-05-09T22:38:14.875Z,18.20
2023-05-09T22:40:41.812Z,18.40
2023-05-09T22:43:10.487Z,18.50
2023-05-09T22:45:37.704Z,18.50
2023-05-09T22:48:05.065Z,18.30
2023-05-09T22:50:31.979Z,18.50
2023-05-09T22:52:58.773Z,18.80
2023-05-09T22:55:25.561Z,18.50
2023-05-09T22:57:52.354Z,18.50
2023-05-09T23:00:19.451Z,18.60
2023-05-09T23:02:46.362Z,18.50
2023-05-09T23:05:13.409Z,18.50
2023-05-09T23:07:40.467Z,18.50
2023-05-09T23:10:07.736Z,18.50
2023-05-09T23:12:34.498Z,18.50
2023-05-09T23:15:01.340Z,18.40
2023-05-09T23:17:28.176Z,18.60
2023-05-09T23:19:55.066Z,18.50
2023-05-09T23:22:21.826Z,18.40
2023-05-09T23:24:48.593Z,18.40
2023-05-09T23:27:15.436Z,18.50
2023-05-09T23:29:42.278Z,18.50
2023-05-09T23:32:09.504Z,18.50
2023-05-09T23:34:36.694Z,18.40
2023-05-09T23:37:04.384Z,18.40
2023-05-09T23:39:31.992Z,18.10
2023-05-09T23:41:59.081Z,18.50
2023-05-09T23:44:26.015Z,18.40
2023-05-09T23:46:52.871Z,18.40
2023-05-09T23:49:19.747Z,18.30
2023-05-09T23:51:46.524Z,18.30
2023-05-09T23:54:13.288Z,18.20
2023-05-09T23:56:40.727Z,18.30
2023-05-09T23:59:07.549Z,18.30
